Time;durP1;ratioP1;P1;durP2;ratioP2;P2;SDS_P1;SDS_P2;PMS_P1;PMS_P2;Temp;Humidity;BMP_temperature;BMP_pressure;BME280_temperature;BME280_humidity;BME280_pressure;Samples;Min_cycle;Max_cycle;Signal;HPM_P1;HPM_P2
2023/06/13 00:00:34;;;;;;;3.38;1.80;;;18.10;75.70;;;;;;5075825;28;20176;-86
2023/06/13 00:03:00;;;;;;;8.07;2.38;;;18.00;74.70;;;;;;5075391;28;20530;-86
2023/06/13 00:05:26;;;;;;;3.75;1.95;;;18.00;75.00;;;;;;5075464;28;20666;-86
2023/06/13 00:07:52;;;;;;;3.78;1.60;;;17.90;74.70;;;;;;5076750;28;20181;-85
2023/06/13 00:10:17;;;;;;;4.30;1.90;;;17.90;75.20;;;;;;5076558;28;20245;-86
2023/06/13 00:12:44;;;;;;;2.10;1.50;;;17.70;74.80;;;;;;5076626;28;20208;-86
2023/06/13 00:15:11;;;;;;;3.83;2.10;;;17.70;75.40;;;;;;5075562;28;20181;-86
2023/06/13 00:17:40;;;;;;;3.35;2.10;;;17.70;75.20;;;;;;5076568;28;20170;-87
2023/06/13 00:20:08;;;;;;;2.58;1.45;;;17.60;75.50;;;;;;5076155;28;20161;-86
2023/06/13 00:22:34;;;;;;;2.85;1.77;;;17.70;76.40;;;;;;5075598;28;20517;-86
2023/06/13 00:25:00;;;;;;;5.85;2.10;;;17.60;75.50;;;;;;5076140;28;20270;-86
2023/06/13 00:27:26;;;;;;;2.67;1.83;;;17.60;76.40;;;;;;5075363;28;20173;-87
2023/06/13 00:29:52;;;;;;;7.85;2.10;;;17.60;78.50;;;;;;5075398;28;20180;-87
2023/06/13 00:32:18;;;;;;;4.13;2.13;;;17.50;78.00;;;;;;5074820;28;20212;-86
2023/06/13 00:34:46;;;;;;;5.15;2.03;;;17.40;77.30;;;;;;5075271;28;20181;-86
2023/06/13 00:37:13;;;;;;;4.90;1.92;;;17.40;78.10;;;;;;5076424;28;20188;-87
2023/06/13 00:39:42;;;;;;;3.42;1.80;;;17.40;77.90;;;;;;5075289;28;20200;-85
2023/06/13 00:42:08;;;;;;;2.20;1.70;;;17.40;77.00;;;;;;5076050;28;20173;-87
2023/06/13 00:44:34;;;;;;;5.93;1.90;;;17.30;77.40;;;;;;5076154;28;20180;-86
2023/06/13 00:47:02;;;;;;;4.55;1.80;;;17.30;77.80;;;;;;5075063;28;20181;-86
2023/06/13 00:49:28;;;;;;;4.25;1.80;;;17.20;78.70;;;;;;5076389;28;20162;-87
2023/06/13 00:52:00;;;;;;;4.75;2.03;;;17.20;79.10;;;;;;5075831;28;20714;-86
2023/06/13 00:54:26;;;;;;;6.47;1.98;;;17.10;77.60;;;;;;5074511;28;20215;-85
2023/06/13 00:56:59;;;;;;;6.20;1.95;;;17.10;77.90;;;;;;5075411;28;20565;-86
2023/06/13 00:59:24;;;;;;;2.58;1.67;;;17.10;79.10;;;;;;5074307;28;20178;-86
2023/06/13 01:01:52;;;;;;;2.88;1.95;;;17.00;80.20;;;;;;5074764;28;20185;-86
2023/06/13 01:04:19;;;;;;;3.35;2.10;;;16.90;78.80;;;;;;5074520;28;20209;-86
2023/06/13 01:06:47;;;;;;;4.80;2.10;;;16.90;78.60;;;;;;5074400;28;20517;-86
2023/06/13 01:09:14;;;;;;;7.20;2.08;;;16.90;80.00;;;;;;5074340;28;20178;-86
2023/06/13 01:12:02;;;;;;;4.38;1.90;;;16.80;80.70;;;;;;5073691;28;20549;-85
2023/06/13 01:14:34;;;;;;;2.85;1.65;;;16.80;79.20;;;;;;5074233;28;20181;-85
2023/06/13 01:17:07;;;;;;;4.80;2.08;;;16.70;79.30;;;;;;5075435;28;20153;-85
2023/06/13 01:19:37;;;;;;;3.30;2.00;;;16.70;79.40;;;;;;5074052;28;20619;-85
2023/06/13 01:22:08;;;;;;;7.57;2.38;;;16.60;79.20;;;;;;5073693;28;20264;-85
2023/06/13 01:24:46;;;;;;;3.13;1.77;;;16.60;79.60;;;;;;5073660;28;20177;-84
2023/06/13 01:27:15;;;;;;;2.25;1.92;;;16.70;79.90;;;;;;5074965;28;20153;-84
2023/06/13 01:29:42;;;;;;;3.63;2.00;;;16.60;79.90;;;;;;5073837;28;20568;-85
2023/06/13 01:32:09;;;;;;;4.32;2.15;;;16.60;80.00;;;;;;5074928;28;20205;-85
2023/06/13 01:34:35;;;;;;;7.18;2.00;;;16.50;80.30;;;;;;5073658;28;20181;-85
2023/06/13 01:37:02;;;;;;;4.72;2.10;;;16.50;80.70;;;;;;5073499;28;20184;-85
2023/06/13 01:39:34;;;;;;;5.20;2.13;;;16.40;82.00;;;;;;5074936;28;20805;-85
2023/06/13 01:42:00;;;;;;;4.38;2.50;;;16.30;82.20;;;;;;5074546;28;20161;-85
2023/06/13 01:44:28;;;;;;;3.58;2.10;;;16.10;82.50;;;;;;5073446;28;20177;-85
2023/06/13 01:47:20;;;;;;;3.05;2.25;;;16.10;82.70;;;;;;5073449;28;20264;-85
2023/06/13 01:49:54;;;;;;;5.60;2.15;;;16.00;83.20;;;;;;5073300;28;20187;-85
2023/06/13 01:52:56;;;;;;;3.30;1.90;;;16.00;83.40;;;;;;5073367;28;20209;-85
2023/06/13 01:55:29;;;;;;;6.75;2.30;;;15.90;84.50;;;;;;5072876;28;20672;-85
2023/06/13 01:58:06;;;;;;;4.53;2.40;;;15.70;84.30;;;;;;5074467;28;20630;-84
2023/06/13 02:00:33;;;;;;;2.97;2.30;;;15.60;85.10;;;;;;5073351;28;20172;-85
2023/06/13 02:03:00;;;;;;;3.95;2.10;;;15.50;85.30;;;;;;5073219;28;20180;-85
2023/06/13 02:05:26;;;;;;;2.80;2.25;;;15.40;85.20;;;;;;5074401;28;20166;-85
2023/06/13 02:07:53;;;;;;;5.38;2.50;;;15.40;86.50;;;;;;5072999;28;20177;-85
2023/06/13 02:10:19;;;;;;;4.82;2.10;;;15.30;86.80;;;;;;5072613;28;20173;-85
2023/06/13 02:12:45;;;;;;;6.05;2.17;;;15.30;87.10;;;;;;5072718;28;20651;-85
2023/06/13 02:15:10;;;;;;;3.65;2.40;;;15.20;87.20;;;;;;5074231;28;20185;-86
2023/06/13 02:17:37;;;;;;;5.75;2.50;;;15.20;87.50;;;;;;5072968;28;20264;-85
2023/06/13 02:20:04;;;;;;;3.20;2.25;;;15.10;87.30;;;;;;5072297;28;20214;-85
2023/06/13 02:22:30;;;;;;;3.75;2.30;;;15.10;88.10;;;;;;5073980;28;20226;-85
2023/06/13 02:24:57;;;;;;;2.75;2.08;;;15.00;89.10;;;;;;5073596;28;20224;-84
2023/06/13 02:27:23;;;;;;;3.47;2.30;;;14.90;89.10;;;;;;5073965;28;20154;-85
2023/06/13 02:29:48;;;;;;;9.52;2.60;;;14.80;89.30;;;;;;5074084;28;20169;-85
2023/06/13 02:32:15;;;;;;;3.22;2.25;;;14.80;89.40;;;;;;5074404;28;20219;-85
2023/06/13 02:34:41;;;;;;;5.43;2.40;;;14.70;90.10;;;;;;5074087;28;20508;-85
2023/06/13 02:37:08;;;;;;;3.38;2.72;;;14.60;90.20;;;;;;5073738;28;20181;-84
2023/06/13 02:39:34;;;;;;;3.17;2.55;;;14.60;90.30;;;;;;5073618;28;20165;-84
2023/06/13 02:42:00;;;;;;;4.60;2.00;;;14.60;90.20;;;;;;5073742;28;20256;-85
2023/06/13 02:44:25;;;;;;;3.08;2.42;;;14.60;90.40;;;;;;5072472;28;20260;-85
2023/06/13 02:46:51;;;;;;;4.53;2.15;;;14.60;89.50;;;;;;5072646;28;20656;-85
2023/06/13 02:49:18;;;;;;;6.85;2.00;;;14.70;88.40;;;;;;5072416;28;20488;-86
2023/06/13 02:51:43;;;;;;;4.15;1.80;;;14.70;88.50;;;;;;5073616;28;20169;-85
2023/06/13 02:54:09;;;;;;;4.18;1.90;;;14.80;87.80;;;;;;5073644;28;20247;-85
2023/06/13 02:56:36;;;;;;;4.35;2.30;;;14.90;87.30;;;;;;5072312;28;20645;-85
2023/06/13 02:59:02;;;;;;;5.28;2.17;;;14.80;87.20;;;;;;5072545;28;20209;-84
2023/06/13 03:01:29;;;;;;;6.05;2.20;;;14.80;86.90;;;;;;5072547;28;20246;-86
2023/06/13 03:03:54;;;;;;;4.45;2.10;;;14.90;87.30;;;;;;5072328;28;20208;-84
2023/06/13 03:06:20;;;;;;;2.55;1.88;;;14.90;86.80;;;;;;5072239;28;20693;-84
2023/06/13 03:08:48;;;;;;;3.50;1.95;;;14.90;86.60;;;;;;5073543;28;20175;-85
2023/06/13 03:11:14;;;;;;;2.22;1.90;;;14.90;86.80;;;;;;5072180;28;20230;-85
2023/06/13 03:13:40;;;;;;;7.93;2.42;;;14.90;87.20;;;;;;5073585;28;20204;-85
2023/06/13 03:16:06;;;;;;;5.00;2.10;;;14.80;87.50;;;;;;5072280;28;20264;-85
2023/06/13 03:18:34;;;;;;;3.60;2.05;;;14.80;87.50;;;;;;5073489;28;20176;-85
2023/06/13 03:21:00;;;;;;;4.20;2.05;;;14.80;87.80;;;;;;5072851;28;20162;-84
2023/06/13 03:23:25;;;;;;;2.90;2.22;;;14.70;87.60;;;;;;5072016;28;20643;-85
2023/06/13 03:25:51;;;;;;;3.67;2.10;;;14.70;87.70;;;;;;5074854;28;20300;-85
2023/06/13 03:28:17;;;;;;;4.38;2.00;;;14.70;88.80;;;;;;5077396;28;20177;-85
2023/06/13 03:30:43;;;;;;;3.75;2.10;;;14.60;89.20;;;;;;5076094;28;20173;-84
2023/06/13 03:33:09;;;;;;;2.20;2.00;;;14.60;89.90;;;;;;5077160;28;20208;-85
2023/06/13 03:35:35;;;;;;;3.53;2.00;;;14.50;90.20;;;;;;5077097;28;20215;-85
2023/06/13 03:38:01;;;;;;;5.97;2.00;;;14.50;90.70;;;;;;5077234;28;20181;-85
2023/06/13 03:40:27;;;;;;;2.78;1.85;;;14.40;91.00;;;;;;5075702;28;20170;-85
2023/06/13 03:42:53;;;;;;;4.75;2.03;;;14.30;91.00;;;;;;5076024;28;20191;-84
2023/06/13 03:45:19;;;;;;;4.20;2.20;;;14.30;91.30;;;;;;5075869;28;20181;-85
2023/06/13 03:47:45;;;;;;;3.75;2.00;;;14.30;90.70;;;;;;5075679;28;20184;-84
2023/06/13 03:50:11;;;;;;;5.75;2.13;;;14.40;90.30;;;;;;5076701;28;20173;-84
2023/06/13 03:52:37;;;;;;;5.03;2.47;;;14.40;90.90;;;;;;5076661;28;20639;-85
2023/06/13 03:55:02;;;;;;;5.13;2.10;;;14.40;91.00;;;;;;5075925;28;20182;-85
2023/06/13 03:57:31;;;;;;;2.53;1.85;;;14.40;90.40;;;;;;5075546;28;20181;-84
2023/06/13 03:59:58;;;;;;;2.88;1.90;;;14.40;90.50;;;;;;5075452;28;20536;-85
2023/06/13 04:02:24;;;;;;;6.28;2.08;;;14.40;90.70;;;;;;5076651;28;20174;-85
2023/06/13 04:04:52;;;;;;;5.93;1.92;;;14.50;90.40;;;;;;5075362;28;20177;-85
2023/06/13 04:07:21;;;;;;;2.97;1.90;;;14.50;89.90;;;;;;5076662;28;20184;-85
2023/06/13 04:09:47;;;;;;;3.95;2.30;;;14.60;89.10;;;;;;5075407;28;20180;-86
2023/06/13 04:12:13;;;;;;;2.55;1.80;;;14.60;88.90;;;;;;5076490;28;20541;-86
2023/06/13 04:14:39;;;;;;;2.95;1.92;;;14.60;90.20;;;;;;5075674;28;20276;-86
2023/06/13 04:17:06;;;;;;;3.40;1.85;;;14.60;89.40;;;;;;5075090;28;20177;-85
2023/06/13 04:19:32;;;;;;;4.07;1.90;;;14.60;90.10;;;;;;5074861;28;20615;-85
2023/06/13 04:21:59;;;;;;;3.22;1.80;;;14.60;91.10;;;;;;5075184;28;20230;-85
2023/06/13 04:24:25;;;;;;;5.55;1.95;;;14.60;90.20;;;;;;5075203;28;20523;-86
2023/06/13 04:26:51;;;;;;;3.75;2.20;;;14.60;90.30;;;;;;5074638;28;20237;-86
2023/06/13 04:29:18;;;;;;;4.00;1.90;;;14.70;90.60;;;;;;5076252;28;20176;-87
2023/06/13 04:31:46;;;;;;;2.28;1.88;;;14.70;90.30;;;;;;5074782;28;20177;-86
2023/06/13 04:34:14;;;;;;;5.47;1.92;;;14.70;90.70;;;;;;5075821;28;20185;-86
2023/06/13 04:36:41;;;;;;;4.68;2.00;;;14.70;90.10;;;;;;5074068;28;20177;-86
2023/06/13 04:39:08;;;;;;;5.93;2.25;;;14.80;90.40;;;;;;5074816;28;20189;-86
2023/06/13 04:41:37;;;;;;;4.55;2.30;;;14.90;91.40;;;;;;5074654;28;20173;-85
2023/06/13 04:44:10;;;;;;;3.72;2.03;;;14.90;90.90;;;;;;5074882;28;20620;-86
2023/06/13 04:46:38;;;;;;;6.38;2.10;;;15.00;91.00;;;;;;5074811;28;20169;-84
2023/06/13 04:49:04;;;;;;;7.80;2.45;;;15.10;91.20;;;;;;5074943;28;20192;-85
2023/06/13 04:51:32;;;;;;;4.68;1.80;;;15.20;91.10;;;;;;5076096;28;20533;-86
2023/06/13 04:54:00;;;;;;;2.80;1.90;;;15.20;90.80;;;;;;5074602;28;20223;-85
2023/06/13 04:56:27;;;;;;;5.32;2.10;;;15.30;91.00;;;;;;5075767;28;20260;-85
2023/06/13 04:58:55;;;;;;;3.67;2.10;;;15.30;90.50;;;;;;5075879;28;20184;-86
2023/06/13 05:01:27;;;;;;;4.25;1.92;;;15.40;90.30;;;;;;5074171;28;20260;-86
2023/06/13 05:03:55;;;;;;;3.88;1.92;;;15.50;91.30;;;;;;5074313;28;20181;-85
2023/06/13 05:06:21;;;;;;;3.92;2.03;;;15.40;90.20;;;;;;5074462;28;20181;-86
2023/06/13 05:08:48;;;;;;;4.53;1.92;;;15.50;91.30;;;;;;5074550;28;20200;-86
2023/06/13 05:11:14;;;;;;;4.53;2.00;;;15.50;90.20;;;;;;5074195;28;20177;-86
2023/06/13 05:13:40;;;;;;;7.18;1.98;;;15.60;90.20;;;;;;5074069;28;20389;-87
2023/06/13 05:16:06;;;;;;;7.25;2.13;;;15.60;90.20;;;;;;5074217;28;20525;-86
2023/06/13 05:18:33;;;;;;;2.65;2.03;;;15.60;90.10;;;;;;5075475;28;20170;-87
2023/06/13 05:20:59;;;;;;;4.78;2.20;;;15.70;89.40;;;;;;5073816;28;20176;-86
2023/06/13 05:23:26;;;;;;;7.20;2.50;;;15.80;90.80;;;;;;5075310;28;20192;-86
2023/06/13 05:25:53;;;;;;;2.72;2.00;;;15.90;90.10;;;;;;5073626;28;20244;-86
2023/06/13 05:28:19;;;;;;;4.57;2.25;;;16.00;90.50;;;;;;5073940;28;20182;-85
2023/06/13 05:30:45;;;;;;;8.07;2.10;;;16.00;89.40;;;;;;5075140;28;20635;-86
2023/06/13 05:33:13;;;;;;;2.63;2.00;;;16.10;90.00;;;;;;5073677;28;20563;-86
2023/06/13 05:35:40;;;;;;;5.72;2.25;;;16.10;90.10;;;;;;5073936;28;20177;-87
2023/06/13 05:38:09;;;;;;;3.88;2.03;;;16.10;90.60;;;;;;5075437;28;20593;-86
2023/06/13 05:40:36;;;;;;;4.40;2.00;;;16.10;90.40;;;;;;5074674;28;20641;-86
2023/06/13 05:43:02;;;;;;;3.22;2.10;;;16.10;90.00;;;;;;5073114;28;20177;-86
2023/06/13 05:45:28;;;;;;;4.28;2.00;;;16.20;90.10;;;;;;5073680;28;20224;-86
2023/06/13 05:47:53;;;;;;;5.32;2.35;;;16.30;90.10;;;;;;5074485;28;20197;-87
2023/06/13 05:50:20;;;;;;;4.45;2.10;;;16.30;90.00;;;;;;5073518;28;20619;-85
2023/06/13 05:52:45;;;;;;;5.13;2.50;;;16.30;88.60;;;;;;5074670;28;20217;-86
2023/06/13 05:55:11;;;;;;;3.72;2.10;;;16.40;89.40;;;;;;5073175;28;20215;-86
2023/06/13 05:57:42;;;;;;;4.43;2.08;;;16.40;89.40;;;;;;5074281;28;20600;-86
2023/06/13 06:00:13;;;;;;;4.47;2.15;;;16.40;89.00;;;;;;5073317;28;20173;-85
2023/06/13 06:02:46;;;;;;;5.63;2.25;;;16.50;89.10;;;;;;5073225;28;20193;-85
2023/06/13 06:05:13;;;;;;;7.32;2.30;;;16.60;90.10;;;;;;5073453;28;20215;-85
2023/06/13 06:07:40;;;;;;;8.80;2.20;;;16.50;88.40;;;;;;5073174;28;20178;-86
2023/06/13 06:10:08;;;;;;;6.57;2.38;;;16.60;88.80;;;;;;5072842;28;20196;-87
2023/06/13 06:12:33;;;;;;;3.70;2.15;;;16.70;88.20;;;;;;5073041;28;20205;-86
2023/06/13 06:15:00;;;;;;;8.98;2.30;;;16.70;88.90;;;;;;5073066;28;20180;-85
2023/06/13 06:17:26;;;;;;;7.28;2.08;;;16.80;87.80;;;;;;5073296;28;20620;-86
2023/06/13 06:19:52;;;;;;;4.43;2.10;;;16.80;88.90;;;;;;5072556;28;20617;-85
2023/06/13 06:22:18;;;;;;;6.03;2.40;;;16.80;88.70;;;;;;5072658;28;20307;-86
2023/06/13 06:24:44;;;;;;;2.88;2.17;;;16.90;89.40;;;;;;5072604;28;20183;-85
2023/06/13 06:27:12;;;;;;;5.20;2.40;;;17.00;89.70;;;;;;5072678;28;20188;-86
2023/06/13 06:29:44;;;;;;;6.65;2.15;;;17.00;88.00;;;;;;5074094;28;20173;-84
2023/06/13 06:32:10;;;;;;;5.45;2.38;;;17.00;87.90;;;;;;5072977;28;20370;-87
2023/06/13 06:34:36;;;;;;;8.88;2.20;;;17.10;89.20;;;;;;5071312;28;20659;-86
2023/06/13 06:37:03;;;;;;;4.18;2.80;;;17.20;88.90;;;;;;5072712;28;20181;-86
2023/06/13 06:39:30;;;;;;;7.30;2.22;;;17.20;89.10;;;;;;5072826;28;20181;-87
2023/06/13 06:41:56;;;;;;;5.65;2.15;;;17.40;88.90;;;;;;5073838;28;20217;-86
2023/06/13 06:44:21;;;;;;;6.55;2.72;;;17.50;88.20;;;;;;5072933;28;20262;-86
2023/06/13 06:46:47;;;;;;;3.88;2.50;;;17.60;87.60;;;;;;5072598;28;20173;-87
2023/06/13 06:49:13;;;;;;;6.82;2.75;;;17.70;87.00;;;;;;5073594;28;20219;-85
2023/06/13 06:51:38;;;;;;;6.38;2.15;;;17.80;86.00;;;;;;5072397;28;20181;-86
2023/06/13 06:54:04;;;;;;;4.65;2.40;;;17.90;86.50;;;;;;5073962;28;20264;-87
2023/06/13 06:56:30;;;;;;;6.80;2.55;;;18.00;86.70;;;;;;5072569;28;20196;-86
2023/06/13 06:58:56;;;;;;;3.80;2.28;;;18.00;85.80;;;;;;5072645;28;20173;-85
2023/06/13 07:01:23;;;;;;;8.07;2.30;;;18.10;85.60;;;;;;5072932;28;20625;-87
2023/06/13 07:03:48;;;;;;;5.43;2.53;;;18.20;86.40;;;;;;5073492;28;20516;-86
2023/06/13 07:06:14;;;;;;;4.35;2.42;;;18.40;86.10;;;;;;5072683;28;20177;-88
2023/06/13 07:08:40;;;;;;;4.75;2.40;;;18.50;84.80;;;;;;5073843;28;20197;-86
2023/06/13 07:11:07;;;;;;;6.65;2.55;;;18.80;86.10;;;;;;5074027;28;20601;-88
2023/06/13 07:13:32;;;;;;;5.13;2.63;;;19.10;85.70;;;;;;5072350;28;20303;-86
2023/06/13 07:16:01;;;;;;;7.55;2.50;;;19.10;83.80;;;;;;5072731;28;20273;-86
2023/06/13 07:18:29;;;;;;;4.13;2.60;;;19.20;84.30;;;;;;5073533;28;20205;-86
2023/06/13 07:20:56;;;;;;;4.57;2.30;;;19.30;85.60;;;;;;5071629;28;20184;-88
2023/06/13 07:23:21;;;;;;;4.40;2.38;;;19.50;85.10;;;;;;5073634;28;20508;-86
2023/06/13 07:25:47;;;;;;;7.43;2.50;;;19.60;83.50;;;;;;5072503;28;20675;-87
2023/06/13 07:28:13;;;;;;;8.07;2.20;;;19.80;84.10;;;;;;5073705;28;20641;-87
2023/06/13 07:30:42;;;;;;;2.88;2.08;;;20.00;84.00;;;;;;5072456;28;20181;-86
2023/06/13 07:33:07;;;;;;;4.30;2.35;;;20.10;84.70;;;;;;5072005;28;20366;-87
2023/06/13 07:35:33;;;;;;;6.38;2.53;;;20.20;82.60;;;;;;5072176;28;20667;-88
2023/06/13 07:37:59;;;;;;;4.82;2.35;;;20.40;84.20;;;;;;5072412;28;20177;-88
2023/06/13 07:40:24;;;;;;;4.05;2.30;;;20.50;83.70;;;;;;5072225;28;20173;-87
2023/06/13 07:42:51;;;;;;;3.28;2.20;;;20.60;82.90;;;;;;5072233;28;20611;-88
2023/06/13 07:45:17;;;;;;;4.18;2.47;;;20.80;85.40;;;;;;5072504;28;20204;-89
2023/06/13 07:47:43;;;;;;;5.15;2.42;;;20.90;84.70;;;;;;5072197;28;20192;-88
2023/06/13 07:50:09;;;;;;;6.80;2.60;;;20.80;83.00;;;;;;5072024;28;20173;-88
2023/06/13 07:52:35;;;;;;;8.88;2.63;;;20.90;84.70;;;;;;5073539;28;20200;-89
2023/06/13 07:55:01;;;;;;;4.28;2.30;;;20.90;83.20;;;;;;5073959;28;20182;-88
2023/06/13 07:57:26;;;;;;;4.20;2.50;;;20.90;83.60;;;;;;5074071;28;20173;-89
2023/06/13 07:59:55;;;;;;;5.30;2.75;;;20.90;85.30;;;;;;5072435;28;20187;-88
2023/06/13 08:02:22;;;;;;;4.72;2.28;;;21.00;84.00;;;;;;5073665;28;20181;-88
2023/06/13 08:04:49;;;;;;;12.07;2.97;;;21.10;83.00;;;;;;5071850;28;20207;-89
2023/06/13 08:07:15;;;;;;;5.50;2.40;;;21.20;84.60;;;;;;5072632;28;20234;-90
2023/06/13 08:09:41;;;;;;;9.13;2.63;;;21.40;82.60;;;;;;5072783;28;20185;-88
2023/06/13 08:12:09;;;;;;;4.85;2.63;;;21.40;82.00;;;;;;5075362;28;20197;-88
2023/06/13 08:14:34;;;;;;;7.60;3.28;;;21.50;82.10;;;;;;5076729;28;20166;-89
2023/06/13 08:17:00;;;;;;;4.43;2.10;;;21.60;84.40;;;;;;5075925;28;20226;-88
2023/06/13 08:19:26;;;;;;;3.60;2.40;;;21.60;82.50;;;;;;5075271;28;20219;-89
2023/06/13 08:21:52;;;;;;;6.97;2.67;;;21.90;81.50;;;;;;5075756;28;20173;-90
2023/06/13 08:24:17;;;;;;;4.80;2.38;;;21.90;81.70;;;;;;5077076;28;20245;-88
2023/06/13 08:26:44;;;;;;;5.80;2.22;;;22.00;82.30;;;;;;5075980;28;20694;-88
2023/06/13 08:29:11;;;;;;;4.82;2.72;;;22.20;82.50;;;;;;5077057;28;20173;-92
2023/06/13 08:31:41;;;;;;;4.22;2.80;;;22.40;81.30;;;;;;5075666;28;20188;-89
2023/06/13 08:34:07;;;;;;;6.22;2.60;;;22.50;78.90;;;;;;5075274;28;20200;-89
2023/06/13 08:36:35;;;;;;;4.78;2.45;;;22.50;80.20;;;;;;5076839;28;20510;-90
2023/06/13 08:39:01;;;;;;;4.07;2.60;;;22.50;80.30;;;;;;5075785;28;20637;-90
2023/06/13 08:41:28;;;;;;;7.20;2.78;;;22.70;82.00;;;;;;5076900;28;20169;-90
2023/06/13 08:43:58;;;;;;;4.20;2.22;;;22.90;81.40;;;;;;5077066;28;20170;-92
2023/06/13 08:46:24;;;;;;;7.25;2.83;;;23.00;81.70;;;;;;5075671;28;20271;-88
2023/06/13 08:48:50;;;;;;;6.68;2.75;;;23.20;82.10;;;;;;5075738;28;20264;-91
2023/06/13 08:51:21;;;;;;;4.32;2.50;;;23.20;78.80;;;;;;5075498;28;20231;-90
2023/06/13 08:53:56;;;;;;;3.70;2.75;;;23.30;80.20;;;;;;5076340;28;20658;-90
2023/06/13 08:56:23;;;;;;;3.75;2.53;;;23.40;79.40;;;;;;5076437;28;20206;-90
2023/06/13 08:59:07;;;;;;;6.53;2.83;;;23.40;78.00;;;;;;5075509;28;20499;-89
2023/06/13 09:01:34;;;;;;;8.82;3.22;;;23.60;79.00;;;;;;5075368;28;20193;-89
2023/06/13 09:04:00;;;;;;;4.55;2.72;;;23.60;78.10;;;;;;5075151;28;20227;-89
2023/06/13 09:06:28;;;;;;;6.55;2.90;;;23.60;77.30;;;;;;5075222;28;20177;-90
2023/06/13 09:08:56;;;;;;;5.75;3.22;;;23.50;77.10;;;;;;5075068;28;20215;-90
2023/06/13 09:11:23;;;;;;;4.38;2.30;;;23.60;77.80;;;;;;5075091;28;20180;-90
2023/06/13 09:13:50;;;;;;;8.30;3.08;;;23.70;78.50;;;;;;5074944;28;20201;-88
2023/06/13 09:16:17;;;;;;;5.65;2.92;;;23.90;78.10;;;;;;5074770;28;20173;-92
2023/06/13 09:18:43;;;;;;;5.15;3.15;;;23.90;76.50;;;;;;5074924;28;20181;-90
2023/06/13 09:21:20;;;;;;;7.03;3.13;;;24.20;77.20;;;;;;5076214;28;20165;-89
2023/06/13 09:23:48;;;;;;;8.45;3.15;;;24.10;75.00;;;;;;5074689;28;20180;-93
2023/06/13 09:26:18;;;;;;;4.97;3.17;;;24.30;76.50;;;;;;5074942;28;20712;-89
2023/06/13 09:28:47;;;;;;;6.53;3.00;;;24.40;76.50;;;;;;5075418;28;20173;-91
2023/06/13 09:31:17;;;;;;;5.80;3.30;;;24.60;77.70;;;;;;5074721;28;20173;-92
2023/06/13 09:33:45;;;;;;;6.65;3.22;;;24.60;75.90;;;;;;5073142;28;20208;-88
2023/06/13 09:36:11;;;;;;;11.02;4.00;;;24.70;76.10;;;;;;5074383;28;20177;-88
2023/06/13 09:38:40;;;;;;;7.25;3.38;;;24.70;73.50;;;;;;5074170;28;20209;-90
2023/06/13 09:41:11;;;;;;;6.30;3.40;;;24.80;76.00;;;;;;5074315;28;20177;-88
2023/06/13 09:43:38;;;;;;;5.30;3.42;;;24.90;73.90;;;;;;5074203;28;20165;-88
2023/06/13 09:46:04;;;;;;;4.57;3.05;;;24.90;75.10;;;;;;5074151;28;20177;-88
2023/06/13 09:48:30;;;;;;;5.15;3.22;;;24.90;71.70;;;;;;5074121;28;20685;-89
2023/06/13 09:50:56;;;;;;;4.95;3.40;;;24.90;72.00;;;;;;5074010;28;20619;-88
2023/06/13 09:53:22;;;;;;;6.13;3.33;;;25.00;73.30;;;;;;5074240;28;20205;-90
2023/06/13 09:55:49;;;;;;;5.07;2.90;;;25.20;71.20;;;;;;5074292;28;20184;-88
2023/06/13 09:58:15;;;;;;;6.28;3.10;;;25.30;70.60;;;;;;5074047;28;20616;-90
2023/06/13 10:00:42;;;;;;;5.72;3.10;;;25.20;70.00;;;;;;5073900;28;20242;-92
2023/06/13 10:03:08;;;;;;;5.20;2.85;;;25.20;70.20;;;;;;5073770;28;20170;-90
2023/06/13 10:05:34;;;;;;;5.25;2.88;;;25.30;69.30;;;;;;5073019;28;20182;-90
2023/06/13 10:08:00;;;;;;;6.03;3.17;;;25.40;72.20;;;;;;5074004;28;20185;-89
2023/06/13 10:10:26;;;;;;;5.90;3.00;;;25.70;72.60;;;;;;5073739;28;20276;-88
2023/06/13 10:12:58;;;;;;;7.25;2.97;;;25.90;71.60;;;;;;5074338;28;20378;-88
2023/06/13 10:15:33;;;;;;;5.78;3.00;;;26.10;68.00;;;;;;5073721;28;20173;-88
2023/06/13 10:18:04;;;;;;;5.55;2.90;;;26.20;70.40;;;;;;5073848;28;20264;-89
2023/06/13 10:20:31;;;;;;;6.95;3.40;;;25.80;65.80;;;;;;5073232;28;20169;-89
2023/06/13 10:22:57;;;;;;;5.45;3.30;;;25.90;64.80;;;;;;5073814;28;20177;-90
2023/06/13 10:25:27;;;;;;;5.38;3.10;;;26.00;64.50;;;;;;5074813;28;20225;-87
2023/06/13 10:27:55;;;;;;;7.03;3.40;;;26.10;64.80;;;;;;5073234;28;20209;-87
2023/06/13 10:30:59;;;;;;;5.05;3.00;;;26.20;64.50;;;;;;5072893;28;20180;-87
2023/06/13 10:33:36;;;;;;;4.63;3.10;;;26.50;65.70;;;;;;5073922;28;20201;-87
2023/06/13 10:36:11;;;;;;;5.93;2.85;;;26.70;63.90;;;;;;5072013;28;20169;-88
2023/06/13 10:39:03;;;;;;;5.57;3.10;;;26.70;65.20;;;;;;5072866;28;20276;-91
2023/06/13 10:41:39;;;;;;;5.00;3.25;;;26.60;63.40;;;;;;5073291;28;20611;-91
2023/06/13 10:44:10;;;;;;;3.55;3.10;;;26.90;64.10;;;;;;5073175;28;20176;-90
2023/06/13 10:46:37;;;;;;;3.70;3.28;;;26.80;59.70;;;;;;5073097;28;20181;-88
2023/06/13 10:49:03;;;;;;;3.40;3.10;;;26.80;60.60;;;;;;5072589;28;20173;-89
2023/06/13 10:51:32;;;;;;;3.97;3.20;;;26.80;63.20;;;;;;5072939;28;20250;-87
2023/06/13 10:54:08;;;;;;;4.45;3.30;;;26.60;60.90;;;;;;5072979;28;20240;-86
2023/06/13 10:56:37;;;;;;;4.03;3.17;;;26.70;62.50;;;;;;5074391;28;20153;-90
2023/06/13 10:59:09;;;;;;;6.00;3.08;;;26.80;61.40;;;;;;5072832;28;20177;-86
2023/06/13 11:01:42;;;;;;;5.20;3.03;;;26.90;61.00;;;;;;5073072;28;20177;-90
2023/06/13 11:04:13;;;;;;;6.15;3.10;;;27.10;60.90;;;;;;5066627;28;20639;-88
2023/06/13 11:06:40;;;;;;;5.05;2.97;;;27.10;59.50;;;;;;5052689;28;20182;-87
2023/06/13 11:09:26;;;;;;;4.82;3.40;;;27.10;59.80;;;;;;5053882;28;20299;-89
2023/06/13 11:12:02;;;;;;;3.42;3.00;;;27.00;60.60;;;;;;5052566;28;20178;-87
2023/06/13 11:14:38;;;;;;;5.35;3.22;;;27.00;60.80;;;;;;5054337;28;20274;-90
2023/06/13 11:17:03;;;;;;;7.88;2.92;;;26.90;61.00;;;;;;5052868;28;20177;-89
2023/06/13 11:19:33;;;;;;;7.50;3.00;;;27.10;59.80;;;;;;5052395;28;20177;-89
2023/06/13 11:21:59;;;;;;;4.68;2.90;;;27.20;60.70;;;;;;5054083;28;20189;-89
2023/06/13 11:24:27;;;;;;;7.00;3.03;;;27.30;61.70;;;;;;5053818;28;20197;-89
2023/06/13 11:26:56;;;;;;;3.78;2.65;;;27.30;60.10;;;;;;5052481;28;20232;-87
2023/06/13 11:29:22;;;;;;;3.50;2.90;;;27.40;60.50;;;;;;5053904;28;20664;-88
2023/06/13 11:31:53;;;;;;;4.85;3.35;;;27.20;61.40;;;;;;5052606;28;20623;-91
2023/06/13 11:34:25;;;;;;;5.13;2.92;;;27.30;61.80;;;;;;5052778;28;20624;-88
2023/06/13 11:36:57;;;;;;;4.63;3.05;;;27.40;60.70;;;;;;5052464;28;20178;-87
2023/06/13 11:39:38;;;;;;;3.83;2.85;;;27.50;61.40;;;;;;5052496;28;20180;-88
2023/06/13 11:42:05;;;;;;;3.50;3.03;;;27.60;62.00;;;;;;5053908;28;20328;-90
2023/06/13 11:44:30;;;;;;;5.15;3.17;;;27.60;62.10;;;;;;5052377;28;20654;-86
2023/06/13 11:46:56;;;;;;;2.70;2.47;;;27.60;60.50;;;;;;5054594;28;20185;-89
2023/06/13 11:49:22;;;;;;;5.25;2.95;;;27.50;59.90;;;;;;5055858;28;20613;-92
2023/06/13 11:51:48;;;;;;;6.60;2.97;;;27.40;60.20;;;;;;5055929;28;20188;-87
2023/06/13 11:54:14;;;;;;;4.88;2.88;;;27.50;61.70;;;;;;5056767;28;20265;-92
2023/06/13 11:56:52;;;;;;;5.00;3.08;;;27.50;60.80;;;;;;5057926;28;20605;-90
2023/06/13 11:59:23;;;;;;;3.88;2.92;;;27.40;60.60;;;;;;5056490;28;20265;-91
2023/06/13 12:01:52;;;;;;;3.72;2.70;;;27.30;62.50;;;;;;5056121;28;20639;-88
2023/06/13 12:04:19;;;;;;;4.57;2.88;;;27.20;62.90;;;;;;5065409;28;20185;-91
2023/06/13 12:06:45;;;;;;;6.32;3.10;;;27.40;60.90;;;;;;5076635;28;20173;-88
2023/06/13 12:09:17;;;;;;;5.50;3.20;;;27.20;59.00;;;;;;5076261;28;20185;-90
2023/06/13 12:11:44;;;;;;;5.82;3.17;;;27.20;60.50;;;;;;5077186;28;20503;-86
2023/06/13 12:14:09;;;;;;;3.90;3.28;;;27.30;60.30;;;;;;5075807;28;20705;-88
2023/06/13 12:16:37;;;;;;;4.47;2.97;;;27.30;60.20;;;;;;5075986;28;20181;-92
2023/06/13 12:19:04;;;;;;;5.68;3.10;;;27.30;60.50;;;;;;5075573;28;20177;-88
2023/06/13 12:21:34;;;;;;;5.00;3.00;;;27.30;60.80;;;;;;5075682;28;20521;-92
2023/06/13 12:24:02;;;;;;;8.95;3.30;;;27.40;60.60;;;;;;5075801;28;20611;-90
2023/06/13 12:26:31;;;;;;;7.45;3.10;;;27.50;61.00;;;;;;5075516;28;20867;-88
2023/06/13 12:29:04;;;;;;;3.78;2.88;;;27.50;59.40;;;;;;5076330;28;20734;-86
2023/06/13 12:31:44;;;;;;;4.53;3.08;;;27.70;62.50;;;;;;5075012;28;20169;-87
2023/06/13 12:34:29;;;;;;;4.70;3.30;;;27.80;60.00;;;;;;5076435;28;20209;-88
2023/06/13 12:37:03;;;;;;;4.40;3.22;;;28.00;59.90;;;;;;5075335;28;20169;-87
2023/06/13 12:39:33;;;;;;;7.25;3.20;;;28.30;60.80;;;;;;5075312;28;20178;-91
2023/06/13 12:42:04;;;;;;;4.88;3.15;;;28.10;59.40;;;;;;5076742;28;20169;-86
2023/06/13 12:44:33;;;;;;;5.53;2.97;;;28.00;58.50;;;;;;5076746;28;20499;-87
2023/06/13 12:47:02;;;;;;;6.38;3.30;;;27.90;60.40;;;;;;5076510;28;20505;-86
2023/06/13 12:49:39;;;;;;;5.15;2.88;;;28.00;59.80;;;;;;5075001;28;20230;-91
2023/06/13 12:52:16;;;;;;;4.18;3.10;;;27.90;58.50;;;;;;5075330;28;20192;-90